createdAt,value
2023-02-21T00:00:13.757Z,66.47
2023-02-21T00:01:25.730Z,66.51
2023-02-21T00:02:18.147Z,66.67
2023-02-21T00:03:10.651Z,66.80
2023-02-21T00:04:02.723Z,66.77
2023-02-21T00:04:55.111Z,66.64
2023-02-21T00:05:47.345Z,66.61
2023-02-21T00:06:39.800Z,66.62
2023-02-21T00:07:31.956Z,66.67
2023-02-21T00:08:24.274Z,66.69
2023-02-21T00:09:16.750Z,66.80
2023-02-21T00:10:09.028Z,66.79
2023-02-21T00:11:01.074Z,66.64
2023-02-21T00:11:53.370Z,66.69
2023-02-21T00:12:45.523Z,66.66
2023-02-21T00:13:37.467Z,66.59
2023-02-21T00:14:29.815Z,66.70
2023-02-21T00:15:22.405Z,66.66
2023-02-21T00:16:15.047Z,66.37
2023-02-21T00:17:07.254Z,66.35
2023-02-21T00:17:59.802Z,66.41
2023-02-21T00:18:55.320Z,66.57
2023-02-21T00:19:47.452Z,66.43
2023-02-21T00:20:39.528Z,66.51
2023-02-21T00:21:31.730Z,66.38
2023-02-21T00:22:23.929Z,66.65
2023-02-21T00:23:16.203Z,66.75
2023-02-21T00:24:08.814Z,66.70
2023-02-21T00:25:00.895Z,66.80
2023-02-21T00:25:53.068Z,66.56
2023-02-21T00:26:45.077Z,66.73
2023-02-21T00:27:37.158Z,66.74
2023-02-21T00:28:29.248Z,66.96
2023-02-21T00:29:21.444Z,66.83
2023-02-21T00:30:13.491Z,66.85
2023-02-21T00:31:05.811Z,66.73
2023-02-21T00:31:58.112Z,66.80
2023-02-21T00:32:50.333Z,66.73
2023-02-21T00:33:45.157Z,66.93
2023-02-21T00:34:37.345Z,67.01
2023-02-21T00:35:30.526Z,66.85
2023-02-21T00:36:22.850Z,67.19
2023-02-21T00:37:14.811Z,67.07
2023-02-21T00:38:10.991Z,67.04
2023-02-21T00:39:03.093Z,67.25
2023-02-21T00:39:55.068Z,67.11
2023-02-21T00:40:47.084Z,66.79
2023-02-21T00:41:40.696Z,66.85
2023-02-21T00:42:32.831Z,66.84
2023-02-21T00:43:24.962Z,66.57
2023-02-21T00:44:17.202Z,66.58
2023-02-21T00:45:09.295Z,66.72
2023-02-21T00:46:01.564Z,66.99
2023-02-21T00:46:55.184Z,66.94
2023-02-21T00:47:47.201Z,66.99
2023-02-21T00:48:40.821Z,67.09
2023-02-21T00:49:32.756Z,66.74
2023-02-21T00:50:25.226Z,66.66
2023-02-21T00:51:17.666Z,66.78
2023-02-21T00:52:10.353Z,67.06
2023-02-21T00:53:02.362Z,67.08
2023-02-21T00:53:54.709Z,67.20
2023-02-21T00:54:47.532Z,67.18
2023-02-21T00:55:39.332Z,67.35
2023-02-21T00:56:31.398Z,67.33
2023-02-21T00:57:23.576Z,67.18
2023-02-21T00:58:16.233Z,67.31
2023-02-21T00:59:08.577Z,67.21
2023-02-21T01:00:01.035Z,67.42
2023-02-21T01:00:53.084Z,67.33
2023-02-21T01:01:45.447Z,67.42
2023-02-21T01:02:37.889Z,67.57
2023-02-21T01:03:30.445Z,67.89
2023-02-21T01:04:22.932Z,67.72
2023-02-21T01:05:15.354Z,67.75
2023-02-21T01:06:07.525Z,67.78
2023-02-21T01:06:59.639Z,67.74
2023-02-21T01:07:51.524Z,67.96
2023-02-21T01:08:43.500Z,68.01
2023-02-21T01:09:37.423Z,67.93
2023-02-21T01:10:31.283Z,68.07
2023-02-21T01:11:23.579Z,68.14
2023-02-21T01:12:15.676Z,68.26
2023-02-21T01:13:07.577Z,68.30
2023-02-21T01:13:59.607Z,68.20
2023-02-21T01:14:51.495Z,68.17
2023-02-21T01:15:43.735Z,68.38
2023-02-21T01:16:35.777Z,68.45
2023-02-21T01:17:27.605Z,68.57
2023-02-21T01:18:19.699Z,68.74
2023-02-21T01:19:11.641Z,68.49
2023-02-21T01:20:04.139Z,68.72
2023-02-21T01:20:58.716Z,68.71
2023-02-21T01:21:51.486Z,68.71
2023-02-21T01:22:44.558Z,69.02
2023-02-21T01:23:36.569Z,68.93
2023-02-21T01:24:33.443Z,69.01
2023-02-21T01:25:26.434Z,69.00
2023-02-21T01:26:18.462Z,69.24
2023-02-21T01:27:10.883Z,69.16
2023-02-21T01:28:03.172Z,69.11
2023-02-21T01:28:55.362Z,69.02
2023-02-21T01:29:47.456Z,69.16
2023-02-21T01:30:40.182Z,69.14
2023-02-21T01:31:40.306Z,69.01
2023-02-21T01:32:32.322Z,69.22
2023-02-21T01:33:24.654Z,69.37
2023-02-21T01:34:17.279Z,69.41
2023-02-21T01:35:09.986Z,69.42
2023-02-21T01:36:01.803Z,69.55
2023-02-21T01:36:54.033Z,69.39
2023-02-21T01:37:46.210Z,69.51
2023-02-21T01:38:39.246Z,69.60
2023-02-21T01:39:31.514Z,69.54
2023-02-21T01:40:24.581Z,69.86
2023-02-21T01:41:16.806Z,69.87
2023-02-21T01:42:09.091Z,69.71
2023-02-21T01:43:01.241Z,69.87
2023-02-21T01:43:53.966Z,70.12
2023-02-21T01:44:54.768Z,69.82
2023-02-21T01:45:55.670Z,70.07
2023-02-21T01:46:47.693Z,70.16
2023-02-21T01:47:40.906Z,70.02
2023-02-21T01:48:40.207Z,70.15
2023-02-21T01:49:36.382Z,70.09
2023-02-21T01:50:46.331Z,70.35
2023-02-21T01:51:42.925Z,70.13
2023-02-21T01:52:36.090Z,70.38
2023-02-21T01:53:34.254Z,70.24
2023-02-21T01:54:28.038Z,70.67
2023-02-21T01:55:21.246Z,70.36
2023-02-21T01:56:16.045Z,70.51
2023-02-21T01:57:08.339Z,70.26
2023-02-21T01:58:04.758Z,70.61
2023-02-21T01:58:56.946Z,70.68
2023-02-21T01:59:49.009Z,70.56
2023-02-21T02:00:41.000Z,70.79
2023-02-21T02:01:42.541Z,70.67
2023-02-21T02:03:02.286Z,70.65
2023-02-21T02:03:55.856Z,70.56
2023-02-21T02:04:50.600Z,70.73
2023-02-21T02:05:44.318Z,70.83
2023-02-21T02:06:37.118Z,71.08
2023-02-21T02:07:30.349Z,71.01
2023-02-21T02:08:22.908Z,71.10
2023-02-21T02:09:15.410Z,70.74
2023-02-21T02:10:07.421Z,71.13
2023-02-21T02:11:00.768Z,70.92
2023-02-21T02:12:12.344Z,70.96
2023-02-21T02:13:10.679Z,71.26
2023-02-21T02:13:57.064Z,71.21
2023-02-21T02:15:07.300Z,71.08
2023-02-21T02:15:58.302Z,71.17
2023-02-21T02:17:10.609Z,71.16
2023-02-21T02:18:18.011Z,71.11
2023-02-21T02:19:10.190Z,71.26
2023-02-21T02:20:16.855Z,71.27
2023-02-21T02:21:05.405Z,71.32
2023-02-21T02:22:20.451Z,71.38
2023-02-21T02:22:56.785Z,71.49
2023-02-21T02:23:58.138Z,71.34
2023-02-21T02:24:42.750Z,71.30
2023-02-21T02:25:22.577Z,71.48
2023-02-21T02:26:23.424Z,71.88
2023-02-21T02:27:26.286Z,71.67
2023-02-21T02:28:13.212Z,71.85
2023-02-21T02:29:25.832Z,71.73
2023-02-21T02:30:21.227Z,71.60
2023-02-21T02:31:28.376Z,71.64
2023-02-21T02:32:29.533Z,71.85
2023-02-21T02:33:39.699Z,71.86
2023-02-21T02:35:00.608Z,71.89
2023-02-21T02:35:58.997Z,72.19
2023-02-21T02:37:03.185Z,72.08
2023-02-21T02:38:31.042Z,72.08
2023-02-21T02:39:10.490Z,72.24
2023-02-21T02:40:17.871Z,72.05
2023-02-21T02:41:09.928Z,72.05
2023-02-21T02:42:08.587Z,72.11
2023-02-21T02:42:58.398Z,72.06
2023-02-21T02:43:50.663Z,72.02
2023-02-21T02:45:15.832Z,72.09
2023-02-21T02:46:11.410Z,72.13
2023-02-21T02:46:48.386Z,72.40
2023-02-21T02:47:32.161Z,72.43
2023-02-21T02:48:16.974Z,72.33
2023-02-21T02:49:00.281Z,72.35
2023-02-21T02:50:46.123Z,72.52
2023-02-21T02:51:20.910Z,72.53
2023-02-21T02:51:58.237Z,72.44
2023-02-21T02:52:32.154Z,72.58
2023-02-21T02:53:07.225Z,72.66
2023-02-21T02:53:41.333Z,72.66
2023-02-21T02:54:15.186Z,72.53
2023-02-21T02:55:29.908Z,72.63
2023-02-21T02:56:12.328Z,72.52
2023-02-21T02:56:48.277Z,72.80
2023-02-21T02:57:21.973Z,72.99
2023-02-21T02:57:58.305Z,72.74
2023-02-21T02:58:36.829Z,72.70
2023-02-21T02:59:18.989Z,72.68
2023-02-21T02:59:52.772Z,73.09
2023-02-21T03:00:27.376Z,72.88
2023-02-21T03:01:31.109Z,72.79
2023-02-21T03:02:22.420Z,72.52
2023-02-21T03:03:22.632Z,72.64
2023-02-21T03:04:08.847Z,72.55
2023-02-21T03:04:54.288Z,72.92
2023-02-21T03:05:36.971Z,72.95
2023-02-21T03:06:37.244Z,73.02
2023-02-21T03:07:55.384Z,73.10
2023-02-21T03:08:47.564Z,73.45
2023-02-21T03:09:45.480Z,73.43
2023-02-21T03:10:29.567Z,73.49
2023-02-21T03:11:19.504Z,73.63
2023-02-21T03:12:11.402Z,73.59
2023-02-21T03:13:02.315Z,73.92
2023-02-21T03:13:45.909Z,73.78
2023-02-21T03:14:24.260Z,74.03
2023-02-21T03:15:22.669Z,74.10
2023-02-21T03:16:15.505Z,74.27
2023-02-21T03:16:58.140Z,74.14
2023-02-21T03:17:40.433Z,74.20
2023-02-21T03:18:23.438Z,74.29
2023-02-21T03:18:59.340Z,74.24
2023-02-21T03:19:38.206Z,74.20
2023-02-21T03:20:14.215Z,74.22
2023-02-21T03:20:55.296Z,74.13
2023-02-21T03:21:38.394Z,74.29
2023-02-21T03:22:22.417Z,74.20
2023-02-21T03:22:59.904Z,74.23
2023-02-21T03:23:36.022Z,74.30
2023-02-21T03:24:14.302Z,74.27
2023-02-21T03:24:51.441Z,74.31
2023-02-21T03:25:26.062Z,74.43
2023-02-21T03:26:06.985Z,74.48
2023-02-21T03:26:45.045Z,74.54
2023-02-21T03:27:43.519Z,74.46
2023-02-21T03:28:41.512Z,74.62
2023-02-21T03:29:17.852Z,74.40
2023-02-21T03:29:53.241Z,74.62
2023-02-21T03:30:28.657Z,74.39
2023-02-21T03:31:05.595Z,74.55
2023-02-21T03:31:48.902Z,74.07
2023-02-21T03:32:27.678Z,74.24
2023-02-21T03:33:01.857Z,74.24
2023-02-21T03:33:35.931Z,74.19
2023-02-21T03:34:12.925Z,73.87
2023-02-21T03:34:46.437Z,73.97
2023-02-21T03:35:23.672Z,74.10
2023-02-21T03:36:00.416Z,73.94
2023-02-21T03:36:37.966Z,74.04
2023-02-21T03:37:21.942Z,73.93
2023-02-21T03:37:56.352Z,74.27
2023-02-21T03:38:34.750Z,74.13
2023-02-21T03:39:08.727Z,74.36
2023-02-21T03:39:42.286Z,74.41
2023-02-21T03:40:26.598Z,74.25
2023-02-21T03:41:00.444Z,74.09
2023-02-21T03:41:34.422Z,74.22
2023-02-21T03:42:08.070Z,74.43
2023-02-21T03:42:41.830Z,74.20
2023-02-21T03:43:15.546Z,74.17
2023-02-21T03:44:03.037Z,74.35
2023-02-21T03:44:37.012Z,74.27
2023-02-21T03:45:11.992Z,74.18
2023-02-21T03:45:45.744Z,74.27
2023-02-21T03:46:24.488Z,74.34
2023-02-21T03:46:58.153Z,74.29
2023-02-21T03:47:31.980Z,74.17
2023-02-21T03:48:06.010Z,74.36
2023-02-21T03:48:40.772Z,74.24
2023-02-21T03:49:21.355Z,74.17
2023-02-21T03:49:55.756Z,74.28
2023-02-21T03:50:29.676Z,74.44
2023-02-21T03:51:03.586Z,74.37
2023-02-21T03:51:41.256Z,74.33
2023-02-21T03:52:15.472Z,74.47
2023-02-21T03:52:49.921Z,74.28
2023-02-21T03:53:23.506Z,74.52
2023-02-21T03:53:57.254Z,74.43
2023-02-21T03:54:35.923Z,74.44
2023-02-21T03:55:10.352Z,74.65
2023-02-21T03:55:44.097Z,74.46
2023-02-21T03:56:26.120Z,74.46
2023-02-21T03:57:21.829Z,74.59
2023-02-21T03:57:56.662Z,74.28
2023-02-21T03:58:30.544Z,74.24
2023-02-21T03:59:04.199Z,73.98
2023-02-21T03:59:38.009Z,73.82
2023-02-21T04:00:14.666Z,73.85
2023-02-21T04:00:54.677Z,73.91
2023-02-21T04:01:28.451Z,74.07
2023-02-21T04:02:02.234Z,74.09
2023-02-21T04:02:38.475Z,74.20
2023-02-21T04:03:12.264Z,74.14
2023-02-21T04:03:48.501Z,73.99
2023-02-21T04:04:22.190Z,74.01
2023-02-21T04:05:03.229Z,74.13
2023-02-21T04:05:37.126Z,74.51
2023-02-21T04:06:10.903Z,74.38
2023-02-21T04:06:44.669Z,74.39
2023-02-21T04:07:20.869Z,74.30
2023-02-21T04:07:54.480Z,74.34
2023-02-21T04:08:28.015Z,74.46
2023-02-21T04:09:01.916Z,74.29
2023-02-21T04:09:35.709Z,74.67
2023-02-21T04:10:09.331Z,74.51
2023-02-21T04:10:52.445Z,74.66
2023-02-21T04:11:28.252Z,74.49
2023-02-21T04:12:01.832Z,74.86
2023-02-21T04:12:37.035Z,74.71
2023-02-21T04:13:10.787Z,74.56
2023-02-21T04:13:49.141Z,74.50
2023-02-21T04:14:23.570Z,74.55
2023-02-21T04:14:58.827Z,74.52
2023-02-21T04:15:32.394Z,74.47
2023-02-21T04:16:06.361Z,74.74
2023-02-21T04:16:42.492Z,74.63
2023-02-21T04:17:16.600Z,74.79
2023-02-21T04:17:50.436Z,74.66
2023-02-21T04:18:24.465Z,74.71
2023-02-21T04:18:59.710Z,74.86
2023-02-21T04:19:33.497Z,74.70
2023-02-21T04:20:08.951Z,74.79
2023-02-21T04:20:47.641Z,74.56
2023-02-21T04:21:24.870Z,74.70
2023-02-21T04:22:02.617Z,74.57
2023-02-21T04:22:36.705Z,74.64
2023-02-21T04:23:10.974Z,74.52
2023-02-21T04:23:45.150Z,74.35
2023-02-21T04:24:18.900Z,74.45
2023-02-21T04:24:52.657Z,74.44
2023-02-21T04:25:27.161Z,74.46
2023-02-21T04:26:06.367Z,74.47
2023-02-21T04:26:48.437Z,74.41
2023-02-21T04:27:22.493Z,74.38
2023-02-21T04:28:00.910Z,74.22
2023-02-21T04:28:34.521Z,74.51
2023-02-21T04:29:08.730Z,74.47
2023-02-21T04:29:42.373Z,74.17
2023-02-21T04:30:16.336Z,74.25
2023-02-21T04:30:49.956Z,74.29
2023-02-21T04:31:23.914Z,74.37
2023-02-21T04:31:58.532Z,74.35
2023-02-21T04:32:32.469Z,74.27
2023-02-21T04:33:10.048Z,74.24
2023-02-21T04:33:44.314Z,74.42
2023-02-21T04:34:20.339Z,74.15
2023-02-21T04:34:54.091Z,74.29
2023-02-21T04:35:27.789Z,74.33
2023-02-21T04:36:03.604Z,74.36
2023-02-21T04:36:47.054Z,74.24
2023-02-21T04:37:20.732Z,74.40
2023-02-21T04:37:54.415Z,74.24
2023-02-21T04:38:28.045Z,74.51
2023-02-21T04:39:02.413Z,74.42
2023-02-21T04:39:36.547Z,74.36
2023-02-21T04:40:10.452Z,74.33
2023-02-21T04:40:44.040Z,74.31
2023-02-21T04:41:18.547Z,74.46
2023-02-21T04:41:52.573Z,74.64
2023-02-21T04:42:26.220Z,74.40
2023-02-21T04:42:59.968Z,74.31
2023-02-21T04:43:34.104Z,74.35
2023-02-21T04:44:07.810Z,74.54
2023-02-21T04:44:42.804Z,74.55
2023-02-21T04:45:18.272Z,74.50
2023-02-21T04:45:51.963Z,74.69
2023-02-21T04:46:25.596Z,74.43
2023-02-21T04:46:59.071Z,74.46
2023-02-21T04:47:32.583Z,74.86
2023-02-21T04:48:06.368Z,74.67
2023-02-21T04:48:42.030Z,74.53
2023-02-21T04:49:16.423Z,74.54
2023-02-21T04:49:51.962Z,74.53
2023-02-21T04:50:25.564Z,74.76
2023-02-21T04:51:16.100Z,74.80
2023-02-21T04:51:49.925Z,74.92
2023-02-21T04:52:23.486Z,74.79
2023-02-21T04:52:57.323Z,74.88
2023-02-21T04:53:30.925Z,74.90
2023-02-21T04:54:04.830Z,74.93
2023-02-21T04:54:38.472Z,74.73
2023-02-21T04:55:12.058Z,74.74
2023-02-21T04:55:45.691Z,74.81
2023-02-21T04:56:22.459Z,75.03
2023-02-21T04:56:56.293Z,74.87
2023-02-21T04:57:30.028Z,74.73
2023-02-21T04:58:03.732Z,74.81
2023-02-21T04:58:44.746Z,74.83
2023-02-21T04:59:19.362Z,74.95
2023-02-21T05:00:00.276Z,75.05
2023-02-21T05:00:33.888Z,74.95
2023-02-21T05:01:08.167Z,75.11
2023-02-21T05:01:41.752Z,74.90
2023-02-21T05:02:15.449Z,74.82
2023-02-21T05:02:49.067Z,74.99
2023-02-21T05:03:24.294Z,74.71
2023-02-21T05:03:59.533Z,74.92
2023-02-21T05:04:33.235Z,74.95
2023-02-21T05:05:06.959Z,74.91
2023-02-21T05:05:40.698Z,75.10
2023-02-21T05:06:19.370Z,75.05
2023-02-21T05:06:52.993Z,74.99
2023-02-21T05:07:26.515Z,74.97
2023-02-21T05:08:00.087Z,74.97
2023-02-21T05:08:33.978Z,74.95
2023-02-21T05:09:07.647Z,74.97
2023-02-21T05:09:41.361Z,74.93
2023-02-21T05:10:16.261Z,75.04
2023-02-21T05:10:49.895Z,74.88
2023-02-21T05:11:24.266Z,74.94
2023-02-21T05:11:57.947Z,75.16
2023-02-21T05:12:32.497Z,74.79
2023-02-21T05:13:06.112Z,75.04
2023-02-21T05:13:39.652Z,74.95
2023-02-21T05:14:13.106Z,75.19
2023-02-21T05:14:48.106Z,75.03
2023-02-21T05:15:21.865Z,75.19
2023-02-21T05:15:55.350Z,75.06
2023-02-21T05:16:31.560Z,75.02
2023-02-21T05:17:05.914Z,75.31
2023-02-21T05:17:39.724Z,75.23
2023-02-21T05:18:13.382Z,75.25
2023-02-21T05:18:48.556Z,75.28
2023-02-21T05:19:27.801Z,75.41
2023-02-21T05:20:02.036Z,75.29
2023-02-21T05:20:35.909Z,75.43
2023-02-21T05:21:09.949Z,75.53
2023-02-21T05:21:43.396Z,75.62
2023-02-21T05:22:20.763Z,75.38
2023-02-21T05:22:55.995Z,75.49
2023-02-21T05:23:34.309Z,75.43
2023-02-21T05:24:08.606Z,75.33
2023-02-21T05:24:42.960Z,75.33
2023-02-21T05:25:22.288Z,75.34
2023-02-21T05:25:55.887Z,75.44
2023-02-21T05:26:35.948Z,75.41
2023-02-21T05:27:15.903Z,75.70
2023-02-21T05:27:50.398Z,75.71
2023-02-21T05:28:24.131Z,75.65
2023-02-21T05:28:57.784Z,75.52
2023-02-21T05:29:31.425Z,75.61
2023-02-21T05:30:05.547Z,75.56
2023-02-21T05:30:39.219Z,75.58
2023-02-21T05:31:12.856Z,75.64
2023-02-21T05:31:47.348Z,75.47
2023-02-21T05:32:22.609Z,75.52
2023-02-21T05:32:56.213Z,75.34
2023-02-21T05:33:29.867Z,75.41
2023-02-21T05:34:03.570Z,75.50
2023-02-21T05:34:37.177Z,75.32
2023-02-21T05:35:11.714Z,75.32
2023-02-21T05:35:47.916Z,75.50
2023-02-21T05:36:24.732Z,75.47
2023-02-21T05:36:58.437Z,75.46
2023-02-21T05:37:32.080Z,75.44
2023-02-21T05:38:05.567Z,75.33
2023-02-21T05:38:47.449Z,75.42
2023-02-21T05:39:21.004Z,75.74
2023-02-21T05:39:54.554Z,75.53
2023-02-21T05:40:28.078Z,75.68
2023-02-21T05:41:02.305Z,75.58
2023-02-21T05:41:37.188Z,75.58
2023-02-21T05:42:10.784Z,75.62
2023-02-21T05:42:44.396Z,75.57
2023-02-21T05:43:18.590Z,75.50
2023-02-21T05:43:52.530Z,75.73
2023-02-21T05:44:26.003Z,75.63
2023-02-21T05:44:59.995Z,75.70
2023-02-21T05:45:33.545Z,75.87
2023-02-21T05:46:07.120Z,75.88
2023-02-21T05:46:40.869Z,75.64
2023-02-21T05:47:15.538Z,75.91
2023-02-21T05:47:49.559Z,75.55
2023-02-21T05:48:23.990Z,75.64
2023-02-21T05:49:02.501Z,75.85
2023-02-21T05:49:36.597Z,75.84
2023-02-21T05:50:10.208Z,75.77
2023-02-21T05:50:45.213Z,75.70
2023-02-21T05:51:19.832Z,75.76
2023-02-21T05:51:53.275Z,75.67
2023-02-21T05:52:27.484Z,75.85
2023-02-21T05:53:01.731Z,75.69
2023-02-21T05:53:35.577Z,75.67
2023-02-21T05:54:13.681Z,75.53
2023-02-21T05:54:47.310Z,75.42
2023-02-21T05:55:21.042Z,75.44
2023-02-21T05:55:54.627Z,75.45
2023-02-21T05:56:28.242Z,75.52
2023-02-21T05:57:02.191Z,75.42
2023-02-21T05:57:40.979Z,75.55
2023-02-21T05:58:14.625Z,75.77
2023-02-21T05:58:48.358Z,75.70
2023-02-21T05:59:22.306Z,75.53
2023-02-21T05:59:55.861Z,75.60
2023-02-21T06:00:30.778Z,75.36
2023-02-21T06:01:05.328Z,75.55
2023-02-21T06:01:39.123Z,75.34
2023-02-21T06:02:12.781Z,75.49
2023-02-21T06:02:46.464Z,75.39
2023-02-21T06:03:22.924Z,75.26
2023-02-21T06:03:56.588Z,75.17
2023-02-21T06:04:30.211Z,75.41
2023-02-21T06:05:03.972Z,75.59
2023-02-21T06:05:37.581Z,75.44
2023-02-21T06:06:11.261Z,75.43
2023-02-21T06:06:45.592Z,75.43
2023-02-21T06:07:19.111Z,75.62
2023-02-21T06:07:53.006Z,75.61
2023-02-21T06:08:26.783Z,75.44
2023-02-21T06:09:00.831Z,75.48
2023-02-21T06:09:35.152Z,75.69
2023-02-21T06:10:09.567Z,75.65
2023-02-21T06:10:43.225Z,75.55
2023-02-21T06:11:28.365Z,75.42
2023-02-21T06:12:02.098Z,75.56
2023-02-21T06:12:36.706Z,75.65
2023-02-21T06:13:10.199Z,75.76
2023-02-21T06:13:43.846Z,75.77
2023-02-21T06:14:20.124Z,75.68
2023-02-21T06:14:53.616Z,75.58
2023-02-21T06:15:29.249Z,75.57
2023-02-21T06:16:02.823Z,75.55
2023-02-21T06:16:38.109Z,75.74
2023-02-21T06:17:11.793Z,75.70
2023-02-21T06:17:45.327Z,75.48
2023-02-21T06:18:19.411Z,75.53
2023-02-21T06:18:55.496Z,75.56
2023-02-21T06:19:29.085Z,75.51
2023-02-21T06:20:03.510Z,75.70
2023-02-21T06:20:37.537Z,75.56
2023-02-21T06:21:11.231Z,75.35
2023-02-21T06:21:45.355Z,75.37
2023-02-21T06:22:19.078Z,75.54
2023-02-21T06:22:52.730Z,75.49
2023-02-21T06:23:27.115Z,75.36
2023-02-21T06:24:00.739Z,75.62
2023-02-21T06:24:34.465Z,75.42
2023-02-21T06:25:09.133Z,75.22
2023-02-21T06:25:42.763Z,75.25
2023-02-21T06:26:17.732Z,75.58
2023-02-21T06:26:51.356Z,75.57
2023-02-21T06:27:24.958Z,75.52
2023-02-21T06:27:58.718Z,75.62
2023-02-21T06:28:32.922Z,75.54
2023-02-21T06:29:06.470Z,75.56
2023-02-21T06:29:40.181Z,75.82
2023-02-21T06:30:14.129Z,75.70
2023-02-21T06:30:47.984Z,75.74
2023-02-21T06:31:22.498Z,75.64
2023-02-21T06:32:00.579Z,75.53
2023-02-21T06:32:34.278Z,75.60
2023-02-21T06:33:08.036Z,75.52
2023-02-21T06:33:41.976Z,75.77
2023-02-21T06:34:15.802Z,75.54
2023-02-21T06:34:49.614Z,75.59
2023-02-21T06:35:23.056Z,76.03
2023-02-21T06:35:56.810Z,75.66
2023-02-21T06:36:30.590Z,75.77
2023-02-21T06:37:04.311Z,75.78
2023-02-21T06:37:38.767Z,75.78
2023-02-21T06:38:12.376Z,75.75
2023-02-21T06:38:49.020Z,75.72
2023-02-21T06:39:23.605Z,75.70
2023-02-21T06:39:57.606Z,75.58
2023-02-21T06:40:31.305Z,75.73
2023-02-21T06:41:09.460Z,75.68
2023-02-21T06:41:43.151Z,75.71
2023-02-21T06:42:20.771Z,75.68
2023-02-21T06:42:54.362Z,75.77
2023-02-21T06:43:27.941Z,75.75
2023-02-21T06:44:01.649Z,75.76
2023-02-21T06:44:35.166Z,75.78
2023-02-21T06:45:08.897Z,75.76
2023-02-21T06:45:42.444Z,75.63
2023-02-21T06:46:18.244Z,75.95
2023-02-21T06:46:55.024Z,75.92
2023-02-21T06:47:28.618Z,75.76
2023-02-21T06:48:02.486Z,75.68
2023-02-21T06:48:36.589Z,75.67
2023-02-21T06:49:10.971Z,75.66
2023-02-21T06:49:44.626Z,75.69
2023-02-21T06:50:18.487Z,75.71
2023-02-21T06:50:52.106Z,75.81
2023-02-21T06:51:30.064Z,75.82
2023-02-21T06:52:03.899Z,75.81
2023-02-21T06:52:38.257Z,75.73
2023-02-21T06:53:11.818Z,75.71
2023-02-21T06:53:49.257Z,75.55
2023-02-21T06:54:22.601Z,75.84
2023-02-21T06:54:56.284Z,76.02
2023-02-21T06:55:29.822Z,75.74
2023-02-21T06:56:03.498Z,75.78
2023-02-21T06:56:37.619Z,75.78
2023-02-21T06:57:11.252Z,75.88
2023-02-21T06:57:44.706Z,75.68
2023-02-21T06:58:18.333Z,75.87
2023-02-21T06:58:51.881Z,75.81
2023-02-21T06:59:25.545Z,75.67
2023-02-21T06:59:59.051Z,75.61
2023-02-21T07:00:32.813Z,75.46
2023-02-21T07:01:06.324Z,75.53
2023-02-21T07:01:40.045Z,75.60
2023-02-21T07:02:19.384Z,75.62
2023-02-21T07:02:56.227Z,75.70
2023-02-21T07:03:30.353Z,75.80
2023-02-21T07:04:03.980Z,75.74
2023-02-21T07:04:37.562Z,75.70
2023-02-21T07:05:11.742Z,75.87
2023-02-21T07:05:46.014Z,75.77
2023-02-21T07:06:19.584Z,75.84
2023-02-21T07:06:53.475Z,75.74
2023-02-21T07:07:27.015Z,75.79
2023-02-21T07:08:01.911Z,75.79
2023-02-21T07:08:35.726Z,75.98
2023-02-21T07:09:09.304Z,76.18
2023-02-21T07:09:43.275Z,76.08
2023-02-21T07:10:17.113Z,76.20
2023-02-21T07:10:50.761Z,76.23
2023-02-21T07:11:24.407Z,76.28
2023-02-21T07:11:58.076Z,76.25
2023-02-21T07:12:31.814Z,76.15
2023-02-21T07:13:05.298Z,76.01
2023-02-21T07:13:38.776Z,76.00
2023-02-21T07:14:12.461Z,75.94
2023-02-21T07:14:45.955Z,75.95
2023-02-21T07:15:19.877Z,76.18
2023-02-21T07:15:53.473Z,76.09
2023-02-21T07:16:28.062Z,76.12
2023-02-21T07:17:01.741Z,75.85
2023-02-21T07:17:35.632Z,76.09
2023-02-21T07:18:09.240Z,76.13
2023-02-21T07:18:42.927Z,76.29
2023-02-21T07:19:49.684Z,76.20
2023-02-21T07:20:23.193Z,76.11
2023-02-21T07:20:57.097Z,76.13
2023-02-21T07:21:31.062Z,76.22
2023-02-21T07:22:04.749Z,76.18
2023-02-21T07:22:38.283Z,76.01
2023-02-21T07:23:11.953Z,76.53
2023-02-21T07:23:46.585Z,76.33
2023-02-21T07:24:20.199Z,76.39
2023-02-21T07:24:54.302Z,76.50
2023-02-21T07:25:28.088Z,76.45
2023-02-21T07:26:01.833Z,76.42
2023-02-21T07:26:37.525Z,76.36
2023-02-21T07:27:11.081Z,76.25
2023-02-21T07:27:44.567Z,76.38
2023-02-21T07:28:19.087Z,76.39
2023-02-21T07:28:52.674Z,76.30
2023-02-21T07:29:26.715Z,76.26
2023-02-21T07:30:00.388Z,76.31
2023-02-21T07:30:34.678Z,76.51
2023-02-21T07:31:08.609Z,76.35
2023-02-21T07:31:42.427Z,76.31
2023-02-21T07:32:19.056Z,76.26
2023-02-21T07:33:26.372Z,76.12
2023-02-21T07:34:00.516Z,76.55
2023-02-21T07:34:34.373Z,76.15
2023-02-21T07:35:08.536Z,76.05
2023-02-21T07:35:42.331Z,76.10
2023-02-21T07:36:16.493Z,76.07
2023-02-21T07:36:50.821Z,75.97
2023-02-21T07:37:24.418Z,75.79
2023-02-21T07:37:58.218Z,74.94
2023-02-21T07:38:32.120Z,74.01
2023-02-21T07:39:05.854Z,73.33
2023-02-21T07:39:39.603Z,72.63
2023-02-21T07:40:13.456Z,72.30
2023-02-21T07:40:47.282Z,71.87
2023-02-21T07:41:21.004Z,71.15
2023-02-21T07:41:54.833Z,70.40
2023-02-21T07:42:29.689Z,70.28
2023-02-21T07:43:03.704Z,70.03
2023-02-21T07:43:37.340Z,69.48
2023-02-21T07:44:10.975Z,68.70
2023-02-21T07:44:44.760Z,68.19
2023-02-21T07:45:18.708Z,67.19
2023-02-21T07:45:52.499Z,66.94
2023-02-21T07:46:28.557Z,66.80
2023-02-21T07:47:02.529Z,66.42
2023-02-21T07:47:36.270Z,66.31
2023-02-21T07:48:09.941Z,65.73
2023-02-21T07:48:43.469Z,65.44
2023-02-21T07:49:17.265Z,65.29
2023-02-21T07:49:51.961Z,65.53
2023-02-21T07:50:25.630Z,65.32
2023-02-21T07:50:59.288Z,65.22
2023-02-21T07:51:32.939Z,65.49
2023-02-21T07:52:09.822Z,64.94
2023-02-21T07:52:43.851Z,64.24
2023-02-21T07:53:17.831Z,64.84
2023-02-21T07:53:51.455Z,64.79
2023-02-21T07:54:25.085Z,64.04
2023-02-21T07:54:59.397Z,63.60
2023-02-21T07:55:33.637Z,64.05
2023-02-21T07:56:07.627Z,64.55
2023-02-21T07:56:48.487Z,64.84
2023-02-21T07:57:22.160Z,65.57
2023-02-21T07:57:55.770Z,65.51
2023-02-21T07:58:29.385Z,65.71
2023-02-21T07:59:03.204Z,65.59
2023-02-21T07:59:36.797Z,65.51
2023-02-21T08:00:10.859Z,64.95
2023-02-21T08:00:47.143Z,64.87
2023-02-21T08:01:24.205Z,64.40
2023-02-21T08:01:57.911Z,64.87
2023-02-21T08:02:32.019Z,64.47
2023-02-21T08:03:05.733Z,64.90
2023-02-21T08:03:41.178Z,64.22
2023-02-21T08:04:15.245Z,64.45
2023-02-21T08:04:52.675Z,65.00
2023-02-21T08:05:26.700Z,65.19
2023-02-21T08:06:01.734Z,65.33
2023-02-21T08:06:36.014Z,65.17
2023-02-21T08:07:09.780Z,65.32
2023-02-21T08:07:43.521Z,64.73
2023-02-21T08:08:17.535Z,64.39
2023-02-21T08:08:51.159Z,64.56
2023-02-21T08:09:24.864Z,63.60
2023-02-21T08:09:58.589Z,63.27
2023-02-21T08:10:32.328Z,63.20
2023-02-21T08:11:07.505Z,63.30
2023-02-21T08:11:41.050Z,63.51
2023-02-21T08:12:14.574Z,63.57
2023-02-21T08:12:48.270Z,63.19
2023-02-21T08:13:21.805Z,63.67
2023-02-21T08:13:55.570Z,63.14
2023-02-21T08:14:29.259Z,61.73
2023-02-21T08:15:03.229Z,61.63
2023-02-21T08:15:39.633Z,61.18
2023-02-21T08:16:13.285Z,60.81
2023-02-21T08:16:46.916Z,60.93
2023-02-21T08:17:20.446Z,60.46
2023-02-21T08:17:53.996Z,60.04
2023-02-21T08:18:27.601Z,59.90
2023-02-21T08:19:01.242Z,59.89
2023-02-21T08:19:34.941Z,58.77
2023-02-21T08:20:09.251Z,58.57
2023-02-21T08:20:42.817Z,58.51
2023-02-21T08:21:16.712Z,59.11
2023-02-21T08:21:52.907Z,58.77
2023-02-21T08:22:26.709Z,59.22
2023-02-21T08:23:00.193Z,59.82
2023-02-21T08:23:33.927Z,59.99
2023-02-21T08:24:07.521Z,60.25
2023-02-21T08:24:41.081Z,60.16
2023-02-21T08:25:16.231Z,59.81
2023-02-21T08:25:50.221Z,60.22
2023-02-21T08:26:23.712Z,59.36
2023-02-21T08:26:57.473Z,59.71
2023-02-21T08:27:31.122Z,60.13
2023-02-21T08:28:04.949Z,60.40
2023-02-21T08:28:38.543Z,60.47
2023-02-21T08:29:13.570Z,60.84
2023-02-21T08:29:50.632Z,60.84
2023-02-21T08:30:25.488Z,61.02
2023-02-21T08:30:59.053Z,61.04
2023-02-21T08:31:36.784Z,61.26
2023-02-21T08:32:10.525Z,61.63
2023-02-21T08:32:44.156Z,61.79
2023-02-21T08:33:17.732Z,61.93
2023-02-21T08:33:51.335Z,62.32
2023-02-21T08:34:25.131Z,62.42
2023-02-21T08:34:58.780Z,62.44
2023-02-21T08:35:32.359Z,62.74
2023-02-21T08:36:07.044Z,62.93
2023-02-21T08:36:44.372Z,63.03
2023-02-21T08:37:20.310Z,63.23
2023-02-21T08:37:57.296Z,63.54
2023-02-21T08:38:31.040Z,63.81